Time;durP1;ratioP1;P1;durP2;ratioP2;P2;SDS_P1;SDS_P2;PMS_P1;PMS_P2;Temp;Humidity;BMP_temperature;BMP_pressure;BME280_temperature;BME280_humidity;BME280_pressure;Samples;Min_cycle;Max_cycle;Signal;HPM_P1;HPM_P2
2021/06/10 00:01:45;;;;;;;8.30;5.18;;;;;;;16.85;59.30;96914.77;127738;1093;113726;-91
2021/06/10 00:04:16;;;;;;;6.25;4.33;;;;;;;16.67;59.15;96913.11;127865;1093;27371;-90
2021/06/10 00:06:47;;;;;;;6.78;4.20;;;;;;;16.62;59.99;96906.80;127832;1093;22786;-94
2021/06/10 00:09:18;;;;;;;7.18;4.80;;;;;;;16.44;60.07;96904.34;127757;1092;113789;-89
2021/06/10 00:11:48;;;;;;;8.83;4.98;;;;;;;16.15;59.99;96910.19;127869;1093;24549;-91
2021/06/10 00:14:19;;;;;;;10.58;5.03;;;;;;;15.89;60.41;96913.48;127760;1093;114380;-90
2021/06/10 00:16:50;;;;;;;7.90;4.80;;;;;;;15.66;60.92;96915.38;127846;1091;22792;-91
2021/06/10 00:19:21;;;;;;;6.58;4.43;;;;;;;15.48;61.62;96907.48;127715;1093;114447;-95
2021/06/10 00:21:52;;;;;;;6.98;4.80;;;;;;;15.31;61.84;96911.59;127867;1091;26267;-90
2021/06/10 00:24:23;;;;;;;5.83;4.10;;;;;;;15.20;62.13;96909.43;127854;1093;22782;-95
2021/06/10 00:26:54;;;;;;;8.00;4.88;;;;;;;15.10;62.41;96915.80;127741;1093;113896;-89
2021/06/10 00:29:25;;;;;;;5.65;4.30;;;;;;;14.97;62.78;96908.59;127905;1093;22947;-91
2021/06/10 00:31:56;;;;;;;6.83;4.53;;;;;;;14.87;62.96;96903.45;127875;1092;113692;-90
2021/06/10 00:34:27;;;;;;;6.10;4.40;;;;;;;14.80;62.97;96909.20;127973;1093;22789;-91
2021/06/10 00:36:58;;;;;;;6.98;4.53;;;;;;;14.70;63.29;96906.73;127938;1093;22883;-90
2021/06/10 00:39:29;;;;;;;5.77;4.23;;;;;;;14.66;63.58;96905.75;127785;1093;113975;-90
2021/06/10 00:42:00;;;;;;;6.05;4.20;;;;;;;14.62;63.57;96905.53;127853;1093;26475;-88
2021/06/10 00:44:31;;;;;;;4.85;3.90;;;;;;;14.54;63.70;96901.69;127753;1090;114167;-91
2021/06/10 00:47:03;;;;;;;7.93;3.80;;;;;;;14.59;63.86;96900.00;127855;1091;22825;-89
2021/06/10 00:49:34;;;;;;;4.55;3.93;;;;;;;14.66;63.74;96898.53;127724;1093;114024;-89
2021/06/10 00:52:05;;;;;;;4.90;3.68;;;;;;;14.51;63.73;96901.50;127851;1093;22813;-89
2021/06/10 00:54:37;;;;;;;7.00;3.70;;;;;;;14.44;63.99;96906.42;127858;1092;22960;-90
2021/06/10 00:57:09;;;;;;;5.95;3.90;;;;;;;14.37;64.10;96895.34;127755;1093;113889;-94
2021/06/10 00:59:40;;;;;;;7.25;3.70;;;;;;;14.31;64.25;96899.95;127848;1093;23007;-96
2021/06/10 01:02:11;;;;;;;6.18;3.43;;;;;;;14.35;64.28;96900.15;127755;1093;113523;-91
2021/06/10 01:04:42;;;;;;;5.90;3.38;;;;;;;14.36;64.28;96888.42;127841;1093;22889;-95
2021/06/10 01:07:21;;;;;;;5.35;3.70;;;;;;;14.33;64.27;96899.66;127746;1092;114115;-90
2021/06/10 01:09:58;;;;;;;5.00;3.63;;;;;;;14.28;64.41;96895.22;127841;1092;22795;-89
2021/06/10 01:12:36;;;;;;;8.00;3.48;;;;;;;14.34;64.41;96890.56;127915;1093;22944;-92
2021/06/10 01:15:11;;;;;;;5.73;3.23;;;;;;;14.36;64.36;96886.55;127784;1093;114108;-91
2021/06/10 01:17:44;;;;;;;6.87;3.60;;;;;;;14.38;64.22;96879.03;127892;1093;22792;-90
2021/06/10 01:20:19;;;;;;;4.48;3.60;;;;;;;14.45;64.15;96881.33;127755;1093;113862;-90
2021/06/10 01:23:03;;;;;;;4.85;3.45;;;;;;;14.53;63.86;96881.44;127852;1093;23160;-91
2021/06/10 01:25:49;;;;;;;4.60;3.40;;;;;;;14.61;63.92;96874.60;127748;1092;114211;-90
2021/06/10 01:28:26;;;;;;;5.40;3.15;;;;;;;14.63;63.84;96868.97;127887;1093;22826;-90
2021/06/10 01:31:01;;;;;;;4.05;3.23;;;;;;;14.61;63.65;96871.94;127900;1093;24440;-90
2021/06/10 01:33:37;;;;;;;5.55;3.80;;;;;;;14.55;63.71;96873.13;127760;1093;114205;-89
2021/06/10 01:36:12;;;;;;;3.60;3.03;;;;;;;14.42;63.82;96871.22;127873;1093;23235;-93
2021/06/10 01:38:47;;;;;;;4.83;3.18;;;;;;;14.31;64.08;96867.95;127774;1093;113971;-90
2021/06/10 01:41:19;;;;;;;5.48;3.05;;;;;;;14.26;64.30;96876.84;127859;1093;22848;-94
2021/06/10 01:43:50;;;;;;;4.28;2.88;;;;;;;14.27;64.27;96866.97;127724;1093;114645;-89
2021/06/10 01:46:25;;;;;;;5.00;3.50;;;;;;;14.31;64.24;96872.49;127883;1093;24522;-90
2021/06/10 01:48:58;;;;;;;4.23;3.43;;;;;;;14.33;64.31;96868.44;127897;1092;22789;-90
2021/06/10 01:51:32;;;;;;;6.80;3.45;;;;;;;14.32;64.23;96868.73;127807;1092;113932;-90
2021/06/10 01:54:05;;;;;;;5.08;3.03;;;;;;;14.34;64.27;96875.36;127861;1093;26270;-90
2021/06/10 01:56:36;;;;;;;4.35;3.20;;;;;;;14.25;64.07;96869.93;127779;1093;114022;-90
2021/06/10 01:59:09;;;;;;;6.83;3.20;;;;;;;14.18;64.14;96874.05;127912;1093;22790;-91
2021/06/10 02:01:41;;;;;;;4.45;3.43;;;;;;;14.12;64.17;96870.70;127750;1093;114472;-94
2021/06/10 02:04:13;;;;;;;5.13;3.43;;;;;;;14.10;64.36;96867.55;127867;1093;27030;-89
2021/06/10 02:06:46;;;;;;;4.53;3.05;;;;;;;14.06;64.30;96874.53;127867;1093;22789;-92
2021/06/10 02:09:20;;;;;;;5.48;3.00;;;;;;;14.01;64.56;96887.95;127778;1093;114641;-90
2021/06/10 02:11:51;;;;;;;3.78;3.03;;;;;;;14.00;64.66;96877.59;127895;1092;22794;-89
2021/06/10 02:14:25;;;;;;;4.63;3.00;;;;;;;13.95;64.44;96881.93;127766;1093;114485;-90
2021/06/10 02:16:57;;;;;;;5.20;2.93;;;;;;;13.89;64.71;96876.96;127963;1093;22854;-89
2021/06/10 02:19:28;;;;;;;5.08;2.98;;;;;;;13.86;64.70;96877.55;127840;1090;113673;-90
2021/06/10 02:21:59;;;;;;;6.08;3.28;;;;;;;13.86;65.05;96877.55;127926;1091;22887;-92
2021/06/10 02:24:30;;;;;;;5.78;3.08;;;;;;;13.82;65.32;96887.22;127860;1093;23668;-89
2021/06/10 02:27:01;;;;;;;3.28;2.90;;;;;;;13.85;65.18;96887.42;127780;1093;113559;-89
2021/06/10 02:29:32;;;;;;;4.98;3.18;;;;;;;13.88;65.13;96891.38;127864;1090;24405;-89
2021/06/10 02:32:03;;;;;;;5.78;3.48;;;;;;;13.87;65.11;96892.46;127766;1092;113693;-90
2021/06/10 02:34:34;;;;;;;4.00;3.10;;;;;;;13.85;65.18;96892.75;127895;1091;23216;-90
2021/06/10 02:37:07;;;;;;;3.48;3.10;;;;;;;13.84;65.14;96890.38;127851;1093;23054;-90
2021/06/10 02:39:41;;;;;;;4.38;3.30;;;;;;;13.83;65.25;96891.47;127763;1092;113574;-90
2021/06/10 02:42:15;;;;;;;3.85;3.33;;;;;;;13.85;65.19;96892.75;127887;1093;25484;-90
2021/06/10 02:44:50;;;;;;;5.50;3.50;;;;;;;13.88;65.17;96897.50;127789;1093;113632;-92
2021/06/10 02:47:24;;;;;;;4.07;3.20;;;;;;;13.86;65.37;96893.55;127880;1093;26274;-89
2021/06/10 02:49:55;;;;;;;5.83;3.40;;;;;;;13.84;65.37;96898.38;127849;1092;113681;-90
2021/06/10 02:52:27;;;;;;;5.10;3.17;;;;;;;13.84;65.41;96896.50;127937;1093;22798;-93
2021/06/10 02:54:58;;;;;;;4.33;3.77;;;;;;;13.81;65.50;96890.97;127936;1093;22842;-90
2021/06/10 02:57:31;;;;;;;5.55;3.40;;;;;;;13.79;65.44;96899.23;127866;1093;113485;-90
2021/06/10 03:00:04;;;;;;;5.28;3.58;;;;;;;13.76;65.59;96891.83;127913;1093;22813;-88
2021/06/10 03:02:37;;;;;;;5.57;3.57;;;;;;;13.77;65.57;96889.95;127785;1093;114413;-89
2021/06/10 03:05:11;;;;;;;4.70;3.33;;;;;;;13.79;65.69;96898.44;127907;1092;23392;-90
2021/06/10 03:07:43;;;;;;;5.20;3.20;;;;;;;13.77;65.61;96900.61;127778;1092;113788;-93
2021/06/10 03:10:16;;;;;;;5.90;3.20;;;;;;;13.75;65.91;96892.91;127863;1093;23675;-89
2021/06/10 03:12:47;;;;;;;4.05;3.65;;;;;;;13.78;65.97;96897.66;127906;1093;26277;-89
2021/06/10 03:15:19;;;;;;;5.10;4.05;;;;;;;13.85;66.08;96899.95;127809;1091;114193;-89
2021/06/10 03:17:51;;;;;;;3.93;3.58;;;;;;;13.88;65.95;96904.70;127862;1092;41111;-91
2021/06/10 03:20:22;;;;;;;4.68;3.48;;;;;;;13.89;65.87;96903.62;127758;1092;113916;-90
2021/06/10 03:22:55;;;;;;;4.80;3.93;;;;;;;13.89;65.96;96907.07;127867;1093;44314;-89
2021/06/10 03:25:26;;;;;;;6.90;4.40;;;;;;;13.95;65.86;96907.80;127874;1093;113996;-89
2021/06/10 03:27:57;;;;;;;7.10;4.85;;;;;;;13.96;66.37;96906.71;127952;1092;22842;-90
2021/06/10 03:30:28;;;;;;;6.18;4.85;;;;;;;14.11;66.90;96906.45;127909;1091;22796;-91
2021/06/10 03:33:01;;;;;;;6.73;4.98;;;;;;;14.26;66.88;96910.72;127898;1093;113956;-89
2021/06/10 03:35:33;;;;;;;7.60;5.55;;;;;;;14.35;66.93;96908.94;127882;1091;23820;-90
2021/06/10 03:38:05;;;;;;;7.08;5.08;;;;;;;14.42;67.04;96905.90;127816;1093;113508;-87
2021/06/10 03:40:37;;;;;;;6.50;4.90;;;;;;;14.57;66.95;96902.19;127910;1093;26303;-88
2021/06/10 03:43:08;;;;;;;7.30;5.15;;;;;;;14.70;67.39;96904.85;127897;1093;22813;-87
2021/06/10 03:45:41;;;;;;;8.93;6.07;;;;;;;14.82;67.58;96905.15;127797;1092;113334;-88
2021/06/10 03:48:14;;;;;;;9.48;6.15;;;;;;;14.98;67.51;96899.50;127905;1093;22836;-88
2021/06/10 03:50:47;;;;;;;6.95;5.08;;;;;;;15.11;67.63;96893.34;127781;1093;113669;-89
2021/06/10 03:53:19;;;;;;;6.70;5.43;;;;;;;15.23;67.31;96904.30;127888;1092;26270;-90
2021/06/10 03:55:49;;;;;;;7.15;5.08;;;;;;;15.33;67.01;96900.59;127791;1093;114062;-87
2021/06/10 03:58:21;;;;;;;7.80;5.48;;;;;;;15.41;67.11;96905.23;127863;1091;25507;-90
2021/06/10 04:00:52;;;;;;;8.40;6.13;;;;;;;15.48;67.13;96902.13;127897;1090;23279;-88
2021/06/10 04:03:23;;;;;;;9.50;6.70;;;;;;;15.51;67.24;96909.57;127796;1092;114336;-88
2021/06/10 04:05:55;;;;;;;8.07;6.90;;;;;;;15.49;67.02;96907.20;127903;1093;22803;-88
2021/06/10 04:08:26;;;;;;;10.08;7.13;;;;;;;15.48;66.81;96905.59;127829;1093;113861;-90
2021/06/10 04:10:57;;;;;;;10.60;6.67;;;;;;;15.47;67.00;96908.57;127930;1091;22786;-90
2021/06/10 04:13:28;;;;;;;8.68;6.45;;;;;;;15.46;67.24;96902.44;127838;1093;114830;-89
2021/06/10 04:15:59;;;;;;;9.38;6.65;;;;;;;15.45;67.14;96904.32;127944;1093;24603;-89
2021/06/10 04:18:30;;;;;;;10.30;6.70;;;;;;;15.40;67.16;96903.66;127957;1093;23026;-90
2021/06/10 04:21:00;;;;;;;12.68;8.00;;;;;;;15.36;67.26;96913.38;127792;1093;113842;-88
2021/06/10 04:23:31;;;;;;;9.53;7.65;;;;;;;15.28;67.58;96911.41;127881;1093;22792;-89
2021/06/10 04:26:02;;;;;;;9.00;6.85;;;;;;;15.25;67.79;96918.14;127762;1092;113506;-88
2021/06/10 04:28:33;;;;;;;8.93;6.38;;;;;;;15.25;67.79;96920.81;127883;1093;24431;-88
2021/06/10 04:31:04;;;;;;;10.63;7.33;;;;;;;15.30;68.09;96915.34;127929;1093;25867;-88
2021/06/10 04:33:35;;;;;;;9.43;6.90;;;;;;;15.37;68.22;96917.63;127814;1092;112792;-87
2021/06/10 04:36:07;;;;;;;9.55;6.98;;;;;;;15.47;68.09;96908.57;127894;1092;22786;-89
2021/06/10 04:38:38;;;;;;;10.98;7.05;;;;;;;15.55;67.90;96910.53;127789;1091;115037;-92
2021/06/10 04:41:10;;;;;;;8.75;6.85;;;;;;;15.61;67.66;96912.80;127868;1093;22891;-89
2021/06/10 04:43:42;;;;;;;9.73;6.30;;;;;;;15.71;67.95;96899.22;127757;1093;114692;-94
2021/06/10 04:46:13;;;;;;;7.58;6.00;;;;;;;15.80;67.53;96901.95;127927;1093;22830;-88
2021/06/10 04:48:44;;;;;;;9.00;6.83;;;;;;;15.90;67.09;96906.25;127903;1092;24399;-87
2021/06/10 04:51:15;;;;;;;7.90;6.30;;;;;;;15.97;67.18;96904.73;127773;1092;113521;-89
2021/06/10 04:53:46;;;;;;;8.80;6.40;;;;;;;16.04;66.96;96905.08;127896;1093;22789;-91
2021/06/10 04:56:18;;;;;;;7.87;6.33;;;;;;;16.10;66.70;96903.09;127781;1093;112668;-88
2021/06/10 04:58:49;;;;;;;9.15;6.15;;;;;;;16.15;66.64;96902.16;127896;1090;22903;-87
2021/06/10 05:01:19;;;;;;;8.23;6.38;;;;;;;16.17;66.35;96906.09;127821;1093;114226;-87
2021/06/10 05:03:50;;;;;;;8.33;6.28;;;;;;;16.23;66.51;96899.54;127884;1093;35187;-88
2021/06/10 05:06:21;;;;;;;9.13;5.90;;;;;;;16.41;67.08;96894.27;127899;1093;22816;-89
2021/06/10 05:08:52;;;;;;;8.58;5.85;;;;;;;16.58;66.61;96897.00;127810;1093;113679;-87
2021/06/10 05:11:23;;;;;;;6.75;6.05;;;;;;;16.70;66.37;96891.09;127882;1093;22880;-89
2021/06/10 05:13:54;;;;;;;8.75;6.45;;;;;;;16.92;66.64;96893.70;127767;1092;114366;-88
2021/06/10 05:16:27;;;;;;;6.43;4.50;;;;;;;17.24;66.11;96891.69;127902;1093;26093;-89
2021/06/10 05:18:58;;;;;;;5.80;3.48;;;;;;;17.61;64.89;96896.45;127950;1093;25877;-89
2021/06/10 05:21:29;;;;;;;5.25;3.18;;;;;;;18.33;63.55;96893.03;127864;1092;114448;-93
2021/06/10 05:24:00;;;;;;;5.38;3.23;;;;;;;19.13;61.26;96895.03;127946;1093;22882;-88
2021/06/10 05:26:31;;;;;;;3.73;3.30;;;;;;;19.82;60.42;96879.17;127763;1093;114267;-88
2021/06/10 05:29:02;;;;;;;5.33;3.53;;;;;;;20.40;58.23;96896.14;127876;1093;22816;-88
2021/06/10 05:31:33;;;;;;;5.70;3.43;;;;;;;20.79;55.14;96890.48;127760;1093;114149;-89
2021/06/10 05:34:04;;;;;;;7.13;3.43;;;;;;;21.10;55.09;96898.77;127877;1093;22792;-89
2021/06/10 05:36:35;;;;;;;3.50;2.65;;;;;;;21.58;52.59;96889.05;127871;1091;25526;-89
2021/06/10 05:39:06;;;;;;;7.45;3.25;;;;;;;21.62;52.18;96895.32;127803;1093;113533;-89
2021/06/10 05:41:37;;;;;;;5.63;2.90;;;;;;;21.93;51.28;96900.03;127861;1093;23840;-87
2021/06/10 05:44:08;;;;;;;3.08;2.60;;;;;;;22.16;50.21;96897.59;127759;1092;113514;-94
2021/06/10 05:46:40;;;;;;;3.75;2.83;;;;;;;22.22;48.67;96904.30;127862;1093;22829;-92
2021/06/10 05:49:11;;;;;;;4.40;2.98;;;;;;;22.49;49.02;96898.05;127899;1093;22880;-89
2021/06/10 05:51:43;;;;;;;5.03;3.18;;;;;;;22.69;48.10;96903.56;127806;1093;113352;-92
2021/06/10 05:54:13;;;;;;;5.88;3.20;;;;;;;22.74;46.34;96895.97;127890;1093;22793;-88
2021/06/10 05:56:45;;;;;;;6.18;3.30;;;;;;;22.82;47.08;96894.23;127793;1092;114053;-89
2021/06/10 05:59:16;;;;;;;4.63;2.95;;;;;;;22.94;46.09;96894.13;127514;1093;115332;-88
2021/06/10 06:01:46;;;;;;;5.23;3.25;;;;;;;23.17;45.24;96893.49;127899;1093;22789;-88
2021/06/10 06:04:17;;;;;;;6.28;3.45;;;;;;;23.24;45.02;96896.38;127754;1093;114303;-88
2021/06/10 06:06:48;;;;;;;5.17;3.20;;;;;;;23.58;45.72;96895.58;127873;1092;22799;-90
2021/06/10 06:09:19;;;;;;;3.73;2.60;;;;;;;23.99;43.68;96894.07;127786;1091;113717;-89
2021/06/10 06:11:51;;;;;;;3.53;2.60;;;;;;;23.76;43.37;96900.56;127871;1093;24138;-89
2021/06/10 06:14:28;;;;;;;4.88;2.68;;;;;;;23.69;43.57;96895.80;127842;1093;23046;-88
2021/06/10 06:17:04;;;;;;;5.35;2.83;;;;;;;23.67;43.85;96901.57;127740;1093;113718;-91
2021/06/10 06:19:36;;;;;;;4.60;2.75;;;;;;;24.00;43.29;96894.85;127861;1093;22791;-88
2021/06/10 06:22:08;;;;;;;5.65;3.33;;;;;;;24.04;42.62;96892.98;127822;1093;114100;-89
2021/06/10 06:24:40;;;;;;;4.40;2.65;;;;;;;24.10;41.92;96898.91;127940;1093;22926;-89
2021/06/10 06:27:12;;;;;;;4.80;2.55;;;;;;;23.96;41.73;96905.63;127747;1093;114269;-88
2021/06/10 06:29:43;;;;;;;4.03;2.65;;;;;;;23.84;41.15;96902.28;127851;1093;22817;-89
2021/06/10 06:32:14;;;;;;;3.30;2.50;;;;;;;23.97;40.85;96898.28;127859;1093;22777;-89
2021/06/10 06:34:45;;;;;;;3.40;2.65;;;;;;;23.88;40.68;96895.78;127772;1093;113998;-89
2021/06/10 06:37:16;;;;;;;4.40;2.83;;;;;;;23.76;40.24;96908.68;127862;1093;22771;-87
2021/06/10 06:39:47;;;;;;;4.28;2.68;;;;;;;23.84;40.74;96908.48;127746;1092;114406;-89
2021/06/10 06:42:17;;;;;;;3.70;2.80;;;;;;;23.98;41.41;96907.97;127865;1093;22819;-88
2021/06/10 06:44:48;;;;;;;6.68;2.90;;;;;;;24.56;42.44;96914.09;127825;1093;22816;-91
2021/06/10 06:47:19;;;;;;;4.03;2.30;;;;;;;25.35;42.25;96910.69;127771;1093;113847;-90
2021/06/10 06:49:50;;;;;;;5.33;2.50;;;;;;;25.34;38.68;96911.06;127884;1093;22771;-87
2021/06/10 06:52:21;;;;;;;3.78;2.20;;;;;;;25.18;39.34;96916.63;127748;1093;113881;-89
2021/06/10 06:54:52;;;;;;;4.38;2.68;;;;;;;25.27;38.79;96922.58;127897;1093;23829;-88
2021/06/10 06:57:22;;;;;;;4.18;2.33;;;;;;;25.26;39.53;96917.52;127840;1091;113688;-88
2021/06/10 06:59:53;;;;;;;3.83;2.40;;;;;;;25.29;39.00;96925.70;127893;1093;23079;-88
2021/06/10 07:02:24;;;;;;;5.18;2.58;;;;;;;25.29;38.84;96922.99;127901;1093;22774;-89
2021/06/10 07:04:55;;;;;;;5.33;2.65;;;;;;;25.60;39.71;96923.79;127738;1093;113818;-88
2021/06/10 07:07:26;;;;;;;4.25;2.38;;;;;;;26.37;39.48;96919.70;127853;1093;23243;-87
2021/06/10 07:09:58;;;;;;;3.45;2.45;;;;;;;26.88;38.76;96936.07;127759;1092;113855;-87
2021/06/10 07:12:29;;;;;;;3.27;2.40;;;;;;;27.53;38.47;96932.66;127893;1093;22825;-87
2021/06/10 07:14:59;;;;;;;6.30;2.15;;;;;;;28.26;38.03;96924.41;127911;1092;22798;-88
2021/06/10 07:17:30;;;;;;;6.65;2.68;;;;;;;28.53;36.99;96933.84;127794;1093;113281;-87
2021/06/10 07:20:01;;;;;;;5.90;2.18;;;;;;;29.01;36.87;96928.06;127939;1092;22796;-88
2021/06/10 07:22:37;;;;;;;2.75;2.10;;;;;;;29.10;35.47;96933.11;127781;1093;114408;-88
2021/06/10 07:25:11;;;;;;;2.78;1.90;;;;;;;29.28;35.12;96925.69;127897;1092;36129;-89
2021/06/10 07:27:43;;;;;;;3.98;1.80;;;;;;;29.31;34.52;96933.09;127817;1093;115341;-86
2021/06/10 07:30:16;;;;;;;3.53;1.60;;;;;;;29.52;34.70;96929.55;127908;1092;22863;-87
2021/06/10 07:32:46;;;;;;;3.45;2.08;;;;;;;29.97;34.35;96941.49;127929;1093;23400;-87
2021/06/10 07:35:21;;;;;;;3.55;2.40;;;;;;;30.06;33.45;96932.91;127767;1093;113684;-89
2021/06/10 07:37:53;;;;;;;4.45;2.50;;;;;;;30.16;34.15;96942.23;127905;1091;25900;-89
2021/06/10 07:40:24;;;;;;;4.23;2.30;;;;;;;30.31;33.61;96940.98;127814;1092;113569;-89
2021/06/10 07:42:55;;;;;;;5.88;2.63;;;;;;;30.16;32.84;96934.81;127924;1092;22799;-85
2021/06/10 07:45:28;;;;;;;3.95;2.33;;;;;;;30.30;33.06;96942.17;127815;1093;113701;-86
2021/06/10 07:47:59;;;;;;;2.77;2.17;;;;;;;30.65;32.77;96936.48;127923;1091;22822;-86
2021/06/10 07:50:31;;;;;;;4.95;2.40;;;;;;;30.36;32.58;96926.88;127973;1091;28440;-86
2021/06/10 07:53:02;;;;;;;3.63;2.65;;;;;;;30.42;32.37;96933.50;127813;1090;113877;-86
2021/06/10 07:55:32;;;;;;;5.25;2.40;;;;;;;30.70;32.42;96938.03;127973;1093;25000;-90
2021/06/10 07:58:03;;;;;;;4.40;2.40;;;;;;;30.75;33.35;96943.07;127790;1093;113911;-89
2021/06/10 08:00:34;;;;;;;3.48;2.45;;;;;;;30.48;31.95;96929.15;127892;1093;22796;-89
2021/06/10 08:03:05;;;;;;;3.23;2.75;;;;;;;29.61;32.10;96946.33;127870;1093;27011;-89
2021/06/10 08:05:36;;;;;;;4.35;2.25;;;;;;;29.03;32.84;96933.13;127862;1093;113561;-86
2021/06/10 08:08:08;;;;;;;6.65;2.73;;;;;;;28.97;33.27;96930.77;128031;1093;22813;-86
2021/06/10 08:10:40;;;;;;;5.48;3.03;;;;;;;28.39;33.03;96933.81;127895;1091;114365;-87
2021/06/10 08:13:11;;;;;;;4.13;2.75;;;;;;;27.28;33.28;96937.95;127967;1093;22792;-87
2021/06/10 08:15:45;;;;;;;5.43;2.50;;;;;;;26.45;34.56;96940.34;127798;1093;114342;-87
2021/06/10 08:18:16;;;;;;;4.85;2.18;;;;;;;26.08;34.88;96945.77;127922;1090;23665;-88
2021/06/10 08:20:47;;;;;;;3.88;2.78;;;;;;;26.01;36.13;96941.80;127922;1093;22789;-90
2021/06/10 08:23:18;;;;;;;3.95;2.33;;;;;;;26.29;35.63;96943.27;127823;1091;114157;-89
2021/06/10 08:25:50;;;;;;;2.90;2.00;;;;;;;26.59;36.02;96946.70;127897;1092;22925;-88
2021/06/10 08:28:21;;;;;;;3.90;2.45;;;;;;;26.95;36.11;96941.59;127769;1093;114265;-89
2021/06/10 08:30:52;;;;;;;4.50;2.23;;;;;;;27.17;35.21;96935.19;127897;1093;22822;-89
2021/06/10 08:33:23;;;;;;;4.85;2.00;;;;;;;27.60;35.47;96943.61;127823;1091;113877;-87
2021/06/10 08:35:56;;;;;;;3.50;2.00;;;;;;;28.09;35.49;96942.28;127919;1093;22820;-87
2021/06/10 08:38:27;;;;;;;4.78;2.68;;;;;;;28.55;34.92;96941.63;127900;1090;22965;-93
2021/06/10 08:40:58;;;;;;;3.67;3.10;;;;;;;28.91;34.46;96937.80;127793;1090;113685;-89
2021/06/10 08:43:29;;;;;;;3.03;2.50;;;;;;;28.96;33.61;96934.67;127953;1092;22786;-88
2021/06/10 08:46:03;;;;;;;3.85;2.40;;;;;;;29.07;34.10;96934.67;127838;1093;114014;-87
2021/06/10 08:48:35;;;;;;;5.38;2.93;;;;;;;28.75;32.66;96940.11;127926;1091;24561;-89
2021/06/10 08:51:09;;;;;;;4.35;2.73;;;;;;;27.58;32.73;96942.41;128021;1093;22854;-88
2021/06/10 08:53:41;;;;;;;4.90;2.80;;;;;;;26.78;33.96;96947.67;127887;1093;113957;-88
2021/06/10 08:56:12;;;;;;;5.23;2.65;;;;;;;26.44;35.18;96942.29;127919;1092;22949;-89
2021/06/10 08:58:46;;;;;;;6.05;2.78;;;;;;;26.20;35.62;96951.73;127870;1093;114835;-89
2021/06/10 09:01:17;;;;;;;5.23;2.70;;;;;;;26.20;36.74;96951.73;127938;1092;24477;-87
2021/06/10 09:03:47;;;;;;;4.13;2.43;;;;;;;26.57;37.01;96956.40;127833;1093;113845;-89
2021/06/10 09:06:19;;;;;;;4.08;2.38;;;;;;;26.46;35.99;96948.13;127884;1093;26277;-89
2021/06/10 09:08:55;;;;;;;2.88;2.10;;;;;;;26.48;36.85;96953.22;127935;1093;23407;-88
2021/06/10 09:11:27;;;;;;;3.28;2.10;;;;;;;26.60;36.07;96952.92;127804;1093;114978;-89
2021/06/10 09:13:59;;;;;;;2.20;1.85;;;;;;;26.41;35.44;96953.91;127963;1093;22799;-85
2021/06/10 09:16:32;;;;;;;3.40;1.50;;;;;;;26.49;36.66;96946.63;127798;1093;114073;-89
2021/06/10 09:19:08;;;;;;;3.95;1.60;;;;;;;26.39;36.24;96941.85;127937;1093;30279;-89
2021/06/10 09:21:42;;;;;;;4.60;1.88;;;;;;;26.12;36.08;96960.17;127895;1093;114438;-89
2021/06/10 09:24:25;;;;;;;2.95;1.80;;;;;;;25.94;36.36;96959.96;127948;1090;23730;-86
2021/06/10 09:27:03;;;;;;;4.60;1.70;;;;;;;26.02;35.65;96956.95;127914;1093;26356;-88
2021/06/10 09:29:43;;;;;;;2.13;1.93;;;;;;;26.09;36.06;96958.20;127818;1092;113465;-88
2021/06/10 09:32:21;;;;;;;2.18;1.68;;;;;;;25.80;35.99;96955.14;127999;1092;22847;-88
2021/06/10 09:34:57;;;;;;;3.20;2.03;;;;;;;25.81;36.00;96956.70;127621;1091;118048;-90
2021/06/10 09:37:34;;;;;;;2.60;1.90;;;;;;;25.48;35.49;96957.41;127954;1093;35321;-88
2021/06/10 09:40:09;;;;;;;3.83;1.40;;;;;;;25.37;35.98;96961.89;127809;1093;114568;-87
2021/06/10 09:42:42;;;;;;;2.13;1.50;;;;;;;25.51;37.04;96955.88;127908;1093;23028;-88
2021/06/10 09:45:16;;;;;;;4.03;1.83;;;;;;;25.71;36.90;96947.25;127892;1092;23521;-90
2021/06/10 09:47:51;;;;;;;2.68;1.60;;;;;;;25.93;36.59;96956.47;127854;1093;113686;-90
2021/06/10 09:50:26;;;;;;;2.70;1.43;;;;;;;26.03;36.30;96950.36;127896;1093;24356;-89
2021/06/10 09:53:00;;;;;;;2.33;1.40;;;;;;;25.99;36.37;96949.54;127867;1093;114028;-88
2021/06/10 09:55:44;;;;;;;2.43;1.45;;;;;;;25.96;36.29;96946.79;127912;1093;23299;-88
2021/06/10 09:58:34;;;;;;;3.30;1.40;;;;;;;25.92;35.69;96940.54;127795;1093;114323;-88
2021/06/10 10:01:10;;;;;;;3.78;1.58;;;;;;;25.60;36.22;96945.52;127946;1092;22782;-89
2021/06/10 10:03:44;;;;;;;3.25;1.88;;;;;;;25.42;35.89;96945.28;127910;1092;27492;-88
2021/06/10 10:06:20;;;;;;;3.25;1.50;;;;;;;25.12;36.38;96947.95;127855;1091;114052;-88
2021/06/10 10:08:54;;;;;;;2.13;1.80;;;;;;;24.96;37.01;96949.98;127892;1093;23933;-88
2021/06/10 10:11:27;;;;;;;1.90;1.65;;;;;;;24.88;36.38;96954.50;127894;1090;113733;-87
2021/06/10 10:13:59;;;;;;;1.90;1.80;;;;;;;24.96;36.80;96955.41;128002;1092;22967;-88
2021/06/10 10:16:33;;;;;;;2.53;1.70;;;;;;;25.01;36.79;96953.20;127811;1093;113942;-87
2021/06/10 10:19:04;;;;;;;1.43;1.23;;;;;;;25.10;36.81;96948.31;127972;1093;22929;-87
2021/06/10 10:21:37;;;;;;;1.98;1.50;;;;;;;24.96;36.96;96948.05;127932;1093;22835;-90
2021/06/10 10:24:10;;;;;;;1.75;1.40;;;;;;;25.14;38.00;96941.00;127776;1093;113863;-90
2021/06/10 10:26:41;;;;;;;2.20;1.30;;;;;;;25.00;36.94;96934.55;127865;1093;22796;-89
2021/06/10 10:29:13;;;;;;;1.43;1.18;;;;;;;24.82;36.50;96931.55;127804;1092;114199;-88
2021/06/10 10:31:49;;;;;;;2.18;1.45;;;;;;;24.79;36.98;96945.84;127925;1093;42706;-89
2021/06/10 10:34:29;;;;;;;1.93;1.20;;;;;;;24.90;36.61;96940.58;127778;1090;114442;-87
2021/06/10 10:37:00;;;;;;;2.20;1.40;;;;;;;24.84;35.93;96927.33;127885;1093;22803;-90
2021/06/10 10:39:36;;;;;;;1.93;1.48;;;;;;;24.73;36.58;96931.79;127931;1093;31027;-87
2021/06/10 10:42:09;;;;;;;1.63;1.40;;;;;;;24.53;35.90;96933.79;127777;1093;114485;-89
2021/06/10 10:44:40;;;;;;;1.55;1.23;;;;;;;24.45;35.89;96934.02;127893;1093;22793;-88
2021/06/10 10:47:13;;;;;;;4.23;1.70;;;;;;;24.58;36.69;96929.98;127833;1093;113846;-88
2021/06/10 10:49:47;;;;;;;1.28;1.18;;;;;;;24.52;35.01;96928.73;127939;1093;22934;-89
2021/06/10 10:52:33;;;;;;;2.15;1.43;;;;;;;24.42;35.52;96924.68;127675;1092;118564;-87
2021/06/10 10:55:20;;;;;;;2.13;1.35;;;;;;;24.43;37.09;96937.09;127766;1093;118839;-90
2021/06/10 10:58:03;;;;;;;1.95;1.45;;;;;;;24.53;37.32;96924.88;127874;1090;22845;-90
2021/06/10 11:00:56;;;;;;;1.60;1.43;;;;;;;24.60;37.74;96926.91;127883;1091;114425;-93
2021/06/10 11:03:30;;;;;;;1.88;1.30;;;;;;;24.85;37.79;96928.89;127913;1093;22798;-90
2021/06/10 11:06:38;;;;;;;4.45;1.40;;;;;;;25.02;37.19;96921.42;127881;1093;114089;-90
2021/06/10 11:09:12;;;;;;;2.83;1.30;;;;;;;24.92;36.16;96911.97;127893;1092;42973;-90
2021/06/10 11:12:02;;;;;;;3.15;1.30;;;;;;;25.03;36.98;96912.92;127830;1093;113938;-89
2021/06/10 11:14:42;;;;;;;1.70;1.53;;;;;;;25.20;37.85;96911.64;128001;1093;22812;-90
2021/06/10 11:17:29;;;;;;;3.38;1.70;;;;;;;25.16;37.91;96905.36;127890;1093;26946;-88
2021/06/10 11:20:05;;;;;;;2.73;1.40;;;;;;;24.99;37.13;96914.77;127832;1093;113835;-88
2021/06/10 11:22:42;;;;;;;3.10;1.40;;;;;;;24.68;35.88;96915.84;127930;1093;22838;-88
2021/06/10 11:25:15;;;;;;;1.90;1.65;;;;;;;24.21;36.55;96908.80;127808;1092;114383;-89
2021/06/10 11:27:49;;;;;;;1.68;1.20;;;;;;;24.33;36.98;96904.38;127807;1093;118139;-88
2021/06/10 11:30:31;;;;;;;1.50;1.40;;;;;;;24.54;38.14;96896.63;127829;1093;24411;-88
2021/06/10 11:33:11;;;;;;;3.20;1.48;;;;;;;24.67;36.97;96899.94;127900;1093;37167;-89
2021/06/10 11:35:45;;;;;;;3.28;1.75;;;;;;;24.73;37.54;96887.63;127761;1093;114136;-88
2021/06/10 11:38:23;;;;;;;2.50;1.65;;;;;;;24.81;37.29;96879.25;127760;1093;114671;-88
2021/06/10 11:41:03;;;;;;;3.35;1.58;;;;;;;24.85;36.80;96876.58;127627;1093;113551;-89
2021/06/10 11:43:37;;;;;;;3.77;1.53;;;;;;;24.53;36.85;96881.51;127957;1093;22844;-88
2021/06/10 11:46:10;;;;;;;1.60;1.40;;;;;;;24.35;37.19;96878.50;127867;1093;113871;-88
2021/06/10 11:48:43;;;;;;;1.60;1.35;;;;;;;24.25;37.31;96873.64;127936;1092;23754;-90